createdAt,value
2023-02-15T00:00:37.373Z,59
2023-02-15T00:01:53.662Z,59.5
2023-02-15T00:03:09.964Z,53
2023-02-15T00:04:26.263Z,56.4
2023-02-15T00:05:42.542Z,53.4
2023-02-15T00:06:58.847Z,55.4
2023-02-15T00:08:15.136Z,63.8
2023-02-15T00:09:31.424Z,60.9
2023-02-15T00:10:47.722Z,56.8
2023-02-15T00:12:04.029Z,65
2023-02-15T00:13:20.310Z,57.1
2023-02-15T00:14:36.609Z,59.9
2023-02-15T00:15:51.910Z,55.1
2023-02-15T00:17:08.211Z,55.5
2023-02-15T00:18:24.506Z,55.2
2023-02-15T00:19:40.791Z,59
2023-02-15T00:20:57.087Z,57
2023-02-15T00:22:13.392Z,57.5
2023-02-15T00:23:29.689Z,64.8
2023-02-15T00:24:45.985Z,58.9
2023-02-15T00:26:02.261Z,57.3
2023-02-15T00:27:18.571Z,55.4
2023-02-15T00:28:34.859Z,53
2023-02-15T00:29:51.156Z,56.6
2023-02-15T00:31:07.442Z,57.2
2023-02-15T00:32:22.750Z,54.9
2023-02-15T00:33:39.045Z,56.8
2023-02-15T00:34:55.340Z,52.9
2023-02-15T00:36:11.631Z,59
2023-02-15T00:37:27.930Z,56
2023-02-15T00:38:44.222Z,50.9
2023-02-15T00:40:00.523Z,54.5
2023-02-15T00:41:16.814Z,54.8
2023-02-15T00:42:33.111Z,52.6
2023-02-15T00:43:49.408Z,50.7
2023-02-15T00:45:05.697Z,51.2
2023-02-15T00:46:21.995Z,51.6
2023-02-15T00:47:38.284Z,49.1
2023-02-15T00:48:53.592Z,52.3
2023-02-15T00:50:09.900Z,56.2
2023-02-15T00:51:26.197Z,60.6
2023-02-15T00:52:42.487Z,57.6
2023-02-15T00:53:58.770Z,57.6
2023-02-15T00:55:15.062Z,62.7
2023-02-15T00:56:31.354Z,57.2
2023-02-15T00:57:47.650Z,60
2023-02-15T00:59:03.946Z,64.4
2023-02-15T01:00:20.240Z,59.5
2023-02-15T01:01:36.534Z,57.9
2023-02-15T01:02:52.843Z,58.2
2023-02-15T01:04:09.132Z,54.1
2023-02-15T01:05:24.438Z,53.3
2023-02-15T01:06:40.725Z,53.2
2023-02-15T01:07:57.033Z,56.7
2023-02-15T01:09:13.314Z,56.3
2023-02-15T01:10:29.605Z,53.2
2023-02-15T01:11:45.906Z,55.6
2023-02-15T01:13:02.204Z,51.8
2023-02-15T01:14:18.492Z,52.4
2023-02-15T01:15:34.780Z,55.7
2023-02-15T01:16:51.081Z,49.5
2023-02-15T01:18:07.374Z,54.9
2023-02-15T01:19:23.662Z,53.6
2023-02-15T01:20:39.967Z,49.8
2023-02-15T01:21:55.277Z,51.9
2023-02-15T01:23:11.572Z,54.1
2023-02-15T01:24:27.866Z,56.6
2023-02-15T01:25:44.154Z,51
2023-02-15T01:27:00.449Z,58.9
2023-02-15T01:28:16.754Z,59.8
2023-02-15T01:29:33.039Z,61
2023-02-15T01:30:49.341Z,56.3
2023-02-15T01:32:05.629Z,57.6
2023-02-15T01:33:21.918Z,54.6
2023-02-15T01:34:38.217Z,52.3
2023-02-15T01:35:54.520Z,53.9
2023-02-15T01:37:10.796Z,51.7
2023-02-15T01:38:26.116Z,50.9
2023-02-15T01:39:42.403Z,52
2023-02-15T01:40:58.708Z,46.3
2023-02-15T01:42:14.995Z,47.8
2023-02-15T01:43:31.289Z,47.2
2023-02-15T01:44:47.582Z,45.7
2023-02-15T01:46:03.873Z,46
2023-02-15T01:47:20.177Z,44.8
2023-02-15T01:48:36.458Z,49.4
2023-02-15T01:49:52.759Z,40.5
2023-02-15T01:51:09.061Z,45.3
2023-02-15T01:52:25.345Z,42
2023-02-15T01:53:41.641Z,45
2023-02-15T01:54:56.953Z,43.7
2023-02-15T01:56:13.256Z,45.4
2023-02-15T01:57:29.539Z,42.4
2023-02-15T01:58:45.832Z,46.5
2023-02-15T02:00:02.129Z,46.8
2023-02-15T02:01:18.417Z,43.8
2023-02-15T02:02:34.714Z,44.3
2023-02-15T02:03:51.015Z,44.1
2023-02-15T02:05:07.301Z,43.1
2023-02-15T02:06:23.611Z,40.6
2023-02-15T02:07:39.902Z,41.2
2023-02-15T02:08:56.185Z,37.5
2023-02-15T02:10:12.479Z,38.8
2023-02-15T02:11:27.793Z,39.8
2023-02-15T02:12:44.092Z,34.6
2023-02-15T02:14:00.384Z,39.9
2023-02-15T02:15:16.676Z,41.6
2023-02-15T02:16:32.964Z,39.1
2023-02-15T02:17:49.258Z,40.7
2023-02-15T02:19:04.573Z,38.9
2023-02-15T02:20:20.881Z,40.2
2023-02-15T02:21:37.166Z,37.7
2023-02-15T02:22:53.454Z,36.4
2023-02-15T02:24:09.750Z,41.7
2023-02-15T02:25:26.045Z,38
2023-02-15T02:26:42.343Z,41.2
2023-02-15T02:27:58.635Z,40.2
2023-02-15T02:29:14.938Z,39.6
2023-02-15T02:30:31.221Z,40.9
2023-02-15T02:31:47.526Z,42.5
2023-02-15T02:33:03.809Z,38
2023-02-15T02:34:20.111Z,43
2023-02-15T02:35:35.409Z,41.6
2023-02-15T02:36:51.716Z,38.2
2023-02-15T02:38:08.008Z,39
2023-02-15T02:39:24.310Z,35.5
2023-02-15T02:40:40.597Z,34.6
2023-02-15T02:41:56.894Z,33.6
2023-02-15T02:43:13.182Z,33.7
2023-02-15T02:44:29.483Z,35
2023-02-15T02:45:45.771Z,35
2023-02-15T02:47:02.073Z,31.7
2023-02-15T02:48:18.366Z,32.6
2023-02-15T02:49:34.649Z,37.3
2023-02-15T02:50:50.946Z,34.9
2023-02-15T02:52:06.269Z,39.2
2023-02-15T02:53:22.548Z,34.9
2023-02-15T02:54:38.841Z,35.8
2023-02-15T02:55:55.138Z,37.7
2023-02-15T02:57:11.429Z,39.4
2023-02-15T02:58:27.727Z,34.2
2023-02-15T02:59:44.018Z,39.9
2023-02-15T03:01:00.312Z,33.1
2023-02-15T03:02:16.619Z,34.7
2023-02-15T03:03:32.904Z,36.3
2023-02-15T03:04:49.198Z,37.3
2023-02-15T03:06:05.489Z,33.6
2023-02-15T03:07:21.789Z,35.7
2023-02-15T03:08:37.107Z,35.8
2023-02-15T03:09:53.401Z,43.7
2023-02-15T03:11:09.684Z,37.5
2023-02-15T03:12:25.982Z,39.3
2023-02-15T03:13:42.280Z,45.3
2023-02-15T03:14:58.569Z,41.1
2023-02-15T03:16:14.863Z,41.5
2023-02-15T03:17:31.160Z,39.6
2023-02-15T03:18:47.462Z,43.9
2023-02-15T03:20:03.737Z,39.9
2023-02-15T03:21:20.035Z,39.6
2023-02-15T03:22:36.333Z,38.3
2023-02-15T03:23:52.639Z,38.8
2023-02-15T03:25:07.950Z,43
2023-02-15T03:26:24.233Z,39.8
2023-02-15T03:27:40.533Z,38.1
2023-02-15T03:28:56.819Z,36.8
2023-02-15T03:30:13.106Z,33.8
2023-02-15T03:31:29.406Z,37.9
2023-02-15T03:32:45.712Z,36.6
2023-02-15T03:34:01.991Z,35.5
2023-02-15T03:35:18.298Z,36.8
2023-02-15T03:36:34.594Z,36.9
2023-02-15T03:37:50.890Z,38.2
2023-02-15T03:39:07.188Z,37.5
2023-02-15T03:40:23.471Z,35.2
2023-02-15T03:41:38.784Z,39.3
2023-02-15T03:42:55.076Z,41.9
2023-02-15T03:44:11.365Z,40.3
2023-02-15T03:45:27.652Z,37.7
2023-02-15T03:46:43.952Z,40.5
2023-02-15T03:48:00.242Z,39.5
2023-02-15T03:49:16.544Z,40
2023-02-15T03:50:32.834Z,36.7
2023-02-15T03:51:49.133Z,38.8
2023-02-15T03:53:05.420Z,43.8
2023-02-15T03:54:21.715Z,39.8
2023-02-15T03:55:38.006Z,40.5
2023-02-15T03:56:54.309Z,45.5
2023-02-15T03:58:09.629Z,43.7
2023-02-15T03:59:25.914Z,41.6
2023-02-15T04:00:42.216Z,38.7
2023-02-15T04:01:58.497Z,46.4
2023-02-15T04:03:14.803Z,36.5
2023-02-15T04:04:31.090Z,39.3
2023-02-15T04:05:47.384Z,36.2
2023-02-15T04:07:03.674Z,38.3
2023-02-15T04:08:19.979Z,39.3
2023-02-15T04:09:36.258Z,36.8
2023-02-15T04:10:52.568Z,40.6
2023-02-15T04:12:08.851Z,36.8
2023-02-15T04:13:25.154Z,34.1
2023-02-15T04:14:40.466Z,35.3
2023-02-15T04:15:56.755Z,36.2
2023-02-15T04:17:13.045Z,35.8
2023-02-15T04:18:29.345Z,32.9
2023-02-15T04:19:45.634Z,35.2
2023-02-15T04:21:01.936Z,33.7
2023-02-15T04:22:18.231Z,32.1
2023-02-15T04:23:34.519Z,33.5
2023-02-15T04:24:50.816Z,33.6
2023-02-15T04:26:07.106Z,36.3
2023-02-15T04:27:23.399Z,35
2023-02-15T04:28:39.692Z,35.4
2023-02-15T04:29:55.986Z,33.6
2023-02-15T04:31:11.290Z,32.8
2023-02-15T04:32:27.587Z,35.6
2023-02-15T04:33:43.892Z,34.1
2023-02-15T04:35:00.184Z,34
2023-02-15T04:36:16.465Z,34.2
2023-02-15T04:37:32.761Z,35.1
2023-02-15T04:38:49.053Z,31.9
2023-02-15T04:40:05.349Z,33.9
2023-02-15T04:41:21.649Z,38
2023-02-15T04:42:37.935Z,34.4
2023-02-15T04:43:54.231Z,31
2023-02-15T04:45:10.533Z,35
2023-02-15T04:46:26.829Z,33.3
2023-02-15T04:47:42.136Z,35
2023-02-15T04:48:58.426Z,37.8
2023-02-15T04:50:14.728Z,34
2023-02-15T04:51:31.022Z,35.2
2023-02-15T04:52:47.316Z,32.6
2023-02-15T04:54:03.618Z,38.4
2023-02-15T04:55:19.898Z,36.4
2023-02-15T04:56:36.198Z,35.2
2023-02-15T04:57:52.502Z,41
2023-02-15T04:59:08.781Z,33.7
2023-02-15T05:00:25.072Z,33.3
2023-02-15T05:01:41.380Z,37.9
2023-02-15T05:02:57.674Z,33.5
2023-02-15T05:04:12.986Z,35.1
2023-02-15T05:05:29.267Z,34.3
2023-02-15T05:06:45.573Z,33.9
2023-02-15T05:08:01.861Z,34.7
2023-02-15T05:09:18.152Z,36.8
2023-02-15T05:10:34.440Z,37.7
2023-02-15T05:11:50.748Z,32.5
2023-02-15T05:13:07.029Z,31.2
2023-02-15T05:14:23.338Z,31.4
2023-02-15T05:15:39.631Z,33.7
2023-02-15T05:16:55.931Z,31.2
2023-02-15T05:18:12.209Z,33.1
2023-02-15T05:19:28.505Z,34.3
2023-02-15T05:20:43.807Z,35.2
2023-02-15T05:22:00.124Z,30.6
2023-02-15T05:23:16.420Z,35.9
2023-02-15T05:24:32.704Z,29.7
2023-02-15T05:25:49.005Z,31.2
2023-02-15T05:27:05.292Z,30.6
2023-02-15T05:28:21.572Z,31.3
2023-02-15T05:29:37.867Z,32.3
2023-02-15T05:30:54.171Z,30.8
2023-02-15T05:32:10.456Z,29.4
2023-02-15T05:33:26.749Z,33.6
2023-02-15T05:34:43.058Z,34.4
2023-02-15T05:35:59.354Z,30.2
2023-02-15T05:37:14.652Z,30.6
2023-02-15T05:38:30.946Z,32.9
2023-02-15T05:39:47.249Z,28.9
2023-02-15T05:41:03.540Z,28.1
2023-02-15T05:42:19.826Z,27.8
2023-02-15T05:43:36.125Z,29.1
2023-02-15T05:44:52.411Z,30.6
2023-02-15T05:46:08.722Z,31.2
2023-02-15T05:47:25.011Z,31.7
2023-02-15T05:48:41.308Z,27.3
2023-02-15T05:49:57.598Z,27.3
2023-02-15T05:51:13.837Z,25.4
2023-02-15T05:52:30.134Z,27.1
2023-02-15T05:53:45.440Z,29.8
2023-02-15T05:55:01.701Z,27.3
2023-02-15T05:56:17.933Z,30
2023-02-15T05:57:34.222Z,28.5
2023-02-15T05:58:50.484Z,25.8
2023-02-15T06:00:06.714Z,28.9
2023-02-15T06:01:23.025Z,31.7
2023-02-15T06:02:39.306Z,29.2
2023-02-15T06:03:55.561Z,32.1
2023-02-15T06:05:11.813Z,32.4
2023-02-15T06:06:28.046Z,38.3
2023-02-15T06:07:44.292Z,31.9
2023-02-15T06:09:00.532Z,30.4
2023-02-15T06:10:15.788Z,30.3
2023-02-15T06:11:32.014Z,31.4
2023-02-15T06:12:48.259Z,32.8
2023-02-15T06:14:04.494Z,33
2023-02-15T06:15:20.753Z,30
2023-02-15T06:16:36.977Z,28.6
2023-02-15T06:17:53.219Z,34.9
2023-02-15T06:19:09.463Z,32.7
2023-02-15T06:20:25.704Z,28.6
2023-02-15T06:21:41.932Z,32.5
2023-02-15T06:22:58.172Z,28.1
2023-02-15T06:24:14.430Z,28.4
2023-02-15T06:25:30.661Z,28.9
2023-02-15T06:26:45.909Z,27.1
2023-02-15T06:28:02.168Z,29.1
2023-02-15T06:29:18.400Z,28.4
2023-02-15T06:30:34.636Z,25.3
2023-02-15T06:31:50.885Z,23
2023-02-15T06:33:07.110Z,24.4
2023-02-15T06:34:22.377Z,32.7
2023-02-15T06:35:38.624Z,30.7
2023-02-15T06:36:54.871Z,32.8
2023-02-15T06:38:11.098Z,30.9
2023-02-15T06:39:27.331Z,27
2023-02-15T06:40:43.589Z,30.1
2023-02-15T06:41:59.821Z,30.3
2023-02-15T06:43:16.058Z,30.4
2023-02-15T06:44:32.308Z,30.9
2023-02-15T06:45:48.552Z,30.2
2023-02-15T06:47:04.775Z,28.4
2023-02-15T06:48:21.017Z,28.9
2023-02-15T06:49:37.264Z,28.5
2023-02-15T06:50:52.527Z,27.8
2023-02-15T06:52:08.756Z,31.1
2023-02-15T06:53:24.990Z,28.2
2023-02-15T06:54:41.232Z,28.7
2023-02-15T06:55:57.485Z,26.8
2023-02-15T06:57:13.731Z,29.8
2023-02-15T06:58:29.954Z,29.4
2023-02-15T06:59:46.199Z,29.2
2023-02-15T07:01:02.438Z,27.7
2023-02-15T07:02:18.678Z,28.5
2023-02-15T07:03:34.930Z,29
2023-02-15T07:04:51.151Z,29.8
2023-02-15T07:06:07.417Z,28.6
2023-02-15T07:07:23.644Z,29.9
2023-02-15T07:08:38.895Z,31
2023-02-15T07:09:55.139Z,29.1
2023-02-15T07:11:11.387Z,29.7
2023-02-15T07:12:27.623Z,27.9
2023-02-15T07:13:43.849Z,27.9
2023-02-15T07:15:00.098Z,29.4
2023-02-15T07:16:16.340Z,25.5
2023-02-15T07:17:32.584Z,26.9
2023-02-15T07:18:48.827Z,27
2023-02-15T07:20:05.050Z,25.1
2023-02-15T07:21:21.302Z,25
2023-02-15T07:22:37.541Z,26.5
2023-02-15T07:23:53.784Z,25.8
2023-02-15T07:25:09.034Z,24
2023-02-15T07:26:25.267Z,25.3
2023-02-15T07:27:41.513Z,21.6
2023-02-15T07:28:57.755Z,25.2
2023-02-15T07:30:13.995Z,22.1
2023-02-15T07:31:30.243Z,21.4
2023-02-15T07:32:46.471Z,24.2
2023-02-15T07:34:02.709Z,23.8
2023-02-15T07:35:18.947Z,19.1
2023-02-15T07:36:35.191Z,23
2023-02-15T07:37:51.447Z,24.2
2023-02-15T07:39:07.676Z,21.3
2023-02-15T07:40:23.918Z,19.3
2023-02-15T07:41:39.178Z,21.4
2023-02-15T07:42:55.407Z,21.6
2023-02-15T07:44:11.648Z,20.3
2023-02-15T07:45:27.897Z,20
2023-02-15T07:46:44.138Z,20.5
2023-02-15T07:48:00.390Z,21.1
2023-02-15T07:49:16.608Z,18.9
2023-02-15T07:50:32.864Z,20.3
2023-02-15T07:51:49.095Z,21.4
2023-02-15T07:53:05.332Z,20.7
2023-02-15T07:54:21.573Z,17.9
2023-02-15T07:55:37.814Z,19.8
2023-02-15T07:56:54.060Z,19.4
2023-02-15T07:58:09.310Z,16.2
2023-02-15T07:59:25.541Z,18
2023-02-15T08:00:41.782Z,17.9
2023-02-15T08:01:58.034Z,19.7
2023-02-15T08:03:14.288Z,19.1
2023-02-15T08:04:30.507Z,17.5
2023-02-15T08:05:46.762Z,18.1
2023-02-15T08:07:02.996Z,18.3
2023-02-15T08:08:19.244Z,18.7
2023-02-15T08:09:35.477Z,21.2
2023-02-15T08:10:51.711Z,18.2
2023-02-15T08:12:07.949Z,16.9
2023-02-15T08:13:24.187Z,18.7
2023-02-15T08:14:39.440Z,17.7
2023-02-15T08:15:55.699Z,15.9
2023-02-15T08:17:11.920Z,16.3
2023-02-15T08:18:28.163Z,15.7
2023-02-15T08:19:44.407Z,18.5
2023-02-15T08:21:00.657Z,16.4
2023-02-15T08:22:16.886Z,17.8
2023-02-15T08:23:33.123Z,14.8
2023-02-15T08:24:49.363Z,15.7
2023-02-15T08:26:05.614Z,14.3
2023-02-15T08:27:21.842Z,15.7
2023-02-15T08:28:38.082Z,15.5
2023-02-15T08:29:54.335Z,15.4
2023-02-15T08:31:09.581Z,16.5
2023-02-15T08:32:25.822Z,15.1
2023-02-15T08:33:42.064Z,15.9
2023-02-15T08:34:58.305Z,15.3
2023-02-15T08:36:14.534Z,17.1
2023-02-15T08:37:30.786Z,16
2023-02-15T08:38:47.034Z,18.9
2023-02-15T08:40:03.271Z,14.2
2023-02-15T08:41:19.503Z,17.2
2023-02-15T08:42:35.752Z,16
2023-02-15T08:43:51.987Z,18
2023-02-15T08:45:08.213Z,15.6
2023-02-15T08:46:24.458Z,15.9
2023-02-15T08:47:39.728Z,15.7
2023-02-15T08:48:55.966Z,14.7
2023-02-15T08:50:12.205Z,15.3
2023-02-15T08:51:28.429Z,15.2
2023-02-15T08:52:44.678Z,16
2023-02-15T08:54:00.925Z,15.3
2023-02-15T08:55:17.158Z,14.9
2023-02-15T08:56:33.400Z,14.9
2023-02-15T08:57:49.649Z,14.8
2023-02-15T08:59:05.890Z,15.4
2023-02-15T09:00:22.110Z,14.7
2023-02-15T09:01:38.354Z,13.7
2023-02-15T09:02:54.596Z,14.5
2023-02-15T09:04:09.848Z,13
2023-02-15T09:05:26.085Z,13.2
2023-02-15T09:06:42.325Z,13.1
2023-02-15T09:07:58.572Z,12.9
2023-02-15T09:09:14.820Z,13.3
2023-02-15T09:10:31.061Z,14
2023-02-15T09:11:47.311Z,12.8
2023-02-15T09:13:03.523Z,12.7
2023-02-15T09:14:19.787Z,12.6
2023-02-15T09:15:36.007Z,11.4
2023-02-15T09:16:52.246Z,13.5
2023-02-15T09:18:08.484Z,12.9
2023-02-15T09:19:24.726Z,12.4
2023-02-15T09:20:39.988Z,11.5
2023-02-15T09:21:56.230Z,11.8
2023-02-15T09:23:12.466Z,11.7
2023-02-15T09:24:28.717Z,13.2
2023-02-15T09:25:44.951Z,12.8
2023-02-15T09:27:01.188Z,11.6
2023-02-15T09:28:17.434Z,11
2023-02-15T09:29:33.679Z,11.9
2023-02-15T09:30:49.918Z,11.8
2023-02-15T09:32:06.140Z,12.6
2023-02-15T09:33:22.386Z,12.6
2023-02-15T09:34:38.645Z,12.3
2023-02-15T09:35:54.881Z,12.4
2023-02-15T09:37:10.129Z,13.1
2023-02-15T09:38:26.361Z,12
2023-02-15T09:39:42.608Z,12.2
2023-02-15T09:40:58.852Z,11.1
2023-02-15T09:42:15.075Z,11.7
2023-02-15T09:43:31.327Z,12
2023-02-15T09:44:47.564Z,12.1
2023-02-15T09:46:03.795Z,12
2023-02-15T09:47:20.046Z,11.3
2023-02-15T09:48:36.290Z,11.2
2023-02-15T09:49:52.538Z,12.1
2023-02-15T09:51:08.769Z,11.1
2023-02-15T09:52:25.009Z,12
2023-02-15T09:53:40.259Z,11.7
2023-02-15T09:54:56.513Z,11.1
2023-02-15T09:56:12.732Z,10.3
2023-02-15T09:57:28.976Z,11.6
2023-02-15T09:58:45.211Z,13.3
2023-02-15T10:00:01.463Z,11.6
2023-02-15T10:01:17.699Z,11.2
2023-02-15T10:02:33.935Z,10
2023-02-15T10:03:50.176Z,12.3
2023-02-15T10:05:06.430Z,11.5
2023-02-15T10:06:22.653Z,10.5
2023-02-15T10:07:38.885Z,9.5
2023-02-15T10:08:55.140Z,10.6
2023-02-15T10:10:10.392Z,10.1
2023-02-15T10:11:26.640Z,10.5
2023-02-15T10:12:42.875Z,10.7
2023-02-15T10:13:59.102Z,8.5
2023-02-15T10:15:15.350Z,8.7
2023-02-15T10:16:31.597Z,10.4
2023-02-15T10:17:47.837Z,8.4
2023-02-15T10:19:04.076Z,8.4
2023-02-15T10:20:20.308Z,10.4
2023-02-15T10:21:36.558Z,10.3
2023-02-15T10:22:52.802Z,8.9
2023-02-15T10:24:09.027Z,10.4
2023-02-15T10:25:25.265Z,10.4
2023-02-15T10:26:40.541Z,10.4
2023-02-15T10:27:56.761Z,8.3
2023-02-15T10:29:13.006Z,9.1
2023-02-15T10:30:29.254Z,9.1
2023-02-15T10:31:45.489Z,9.3
2023-02-15T10:33:01.721Z,9.5
2023-02-15T10:34:17.984Z,8.9
2023-02-15T10:35:34.194Z,8.8
2023-02-15T10:36:50.000Z,9.7
2023-02-15T10:38:06.687Z,9.1
2023-02-15T10:39:22.919Z,10.1
2023-02-15T10:40:39.171Z,8.4
2023-02-15T10:41:55.395Z,8.6
2023-02-15T10:43:10.661Z,10
2023-02-15T10:44:26.894Z,8.7
2023-02-15T10:45:43.132Z,9.4
2023-02-15T10:46:59.360Z,9.5
2023-02-15T10:48:15.610Z,8.9
2023-02-15T10:49:30.888Z,9.5
2023-02-15T10:50:47.107Z,9.8
2023-02-15T10:52:03.342Z,9.1
2023-02-15T10:53:19.578Z,8.8
2023-02-15T10:54:35.820Z,10.5
2023-02-15T10:55:52.051Z,9.2
2023-02-15T10:57:08.303Z,12.1
2023-02-15T10:58:24.535Z,9.6
2023-02-15T10:59:40.786Z,12.5
2023-02-15T11:00:57.025Z,10
2023-02-15T11:02:13.252Z,10.9
2023-02-15T11:03:29.497Z,9.9
2023-02-15T11:04:45.737Z,12.1
2023-02-15T11:06:00.982Z,9.7
2023-02-15T11:07:17.233Z,9
2023-02-15T11:08:33.460Z,9.9
2023-02-15T11:09:49.703Z,9.9
2023-02-15T11:11:05.934Z,8.9
2023-02-15T11:12:22.182Z,11.1
2023-02-15T11:13:38.425Z,9
2023-02-15T11:14:54.659Z,12.1
2023-02-15T11:16:10.898Z,9.9
2023-02-15T11:17:27.130Z,8.6
2023-02-15T11:18:43.370Z,10.8
2023-02-15T11:19:59.629Z,8.7
2023-02-15T11:21:15.859Z,10.4
2023-02-15T11:22:31.116Z,9.4
2023-02-15T11:23:47.353Z,10
2023-02-15T11:25:03.582Z,9.1
2023-02-15T11:26:19.827Z,8.6
2023-02-15T11:27:36.055Z,8.5
2023-02-15T11:28:52.304Z,8.8
2023-02-15T11:30:08.539Z,8.6
2023-02-15T11:31:24.789Z,8.5
2023-02-15T11:32:41.010Z,10.4
2023-02-15T11:33:57.267Z,7.2
2023-02-15T11:35:13.504Z,9.6
2023-02-15T11:36:29.744Z,10.4
2023-02-15T11:37:45.972Z,8.6
2023-02-15T11:39:01.220Z,9.3
2023-02-15T11:40:17.464Z,9
2023-02-15T11:41:33.717Z,7.3
2023-02-15T11:42:49.939Z,8.4
2023-02-15T11:44:06.172Z,7.3
2023-02-15T11:45:22.427Z,8.1
2023-02-15T11:46:38.660Z,8.7
2023-02-15T11:47:54.898Z,7.5
2023-02-15T11:49:11.144Z,9.2
2023-02-15T11:50:27.371Z,8.1
2023-02-15T11:51:43.624Z,7.2
2023-02-15T11:52:59.857Z,7.4
2023-02-15T11:54:16.105Z,8.2
2023-02-15T11:55:31.355Z,8.3
2023-02-15T11:56:47.603Z,9.9
2023-02-15T11:58:03.823Z,7.4
2023-02-15T11:59:20.072Z,7.7
2023-02-15T12:00:36.309Z,11
2023-02-15T12:01:52.554Z,9.3
2023-02-15T12:03:08.779Z,7.4
2023-02-15T12:04:25.036Z,7.4
2023-02-15T12:05:41.254Z,8.5
2023-02-15T12:06:57.494Z,8
2023-02-15T12:08:13.730Z,7.7
2023-02-15T12:09:29.981Z,9.5
2023-02-15T12:10:46.223Z,7.2
2023-02-15T12:12:01.469Z,9.4
2023-02-15T12:13:17.711Z,7.5
2023-02-15T12:14:33.941Z,9
2023-02-15T12:15:50.181Z,9.2
2023-02-15T12:17:06.416Z,8.5
2023-02-15T12:18:22.656Z,8.8
2023-02-15T12:19:38.899Z,8.2
2023-02-15T12:20:55.134Z,10.1
2023-02-15T12:22:11.371Z,7.5
2023-02-15T12:23:27.616Z,9.8
2023-02-15T12:24:43.863Z,7.6
2023-02-15T12:26:00.103Z,8.3
2023-02-15T12:27:16.334Z,8.5
2023-02-15T12:28:31.603Z,8.8
2023-02-15T12:29:47.836Z,8.6
2023-02-15T12:31:04.065Z,8.8
2023-02-15T12:32:20.315Z,8.2
2023-02-15T12:33:36.539Z,10.1
2023-02-15T12:34:52.802Z,11.3
2023-02-15T12:36:09.025Z,8.2
2023-02-15T12:37:25.255Z,8.2
2023-02-15T12:38:41.499Z,10.5
2023-02-15T12:39:57.739Z,12.8
2023-02-15T12:41:13.982Z,10.5
2023-02-15T12:42:30.223Z,9.1
2023-02-15T12:43:46.473Z,8.7
2023-02-15T12:45:01.716Z,9.5
2023-02-15T12:46:17.959Z,8.2
2023-02-15T12:47:34.192Z,9.4
2023-02-15T12:48:50.430Z,9.9
2023-02-15T12:50:06.671Z,10.4
2023-02-15T12:51:22.921Z,10.4
2023-02-15T12:52:39.140Z,10
2023-02-15T12:53:55.379Z,10.4
2023-02-15T12:55:11.641Z,11
2023-02-15T12:56:27.856Z,8.5
2023-02-15T12:57:44.104Z,9.3
2023-02-15T12:59:00.361Z,9.6
2023-02-15T13:00:16.587Z,8.7
2023-02-15T13:01:31.841Z,8.1
2023-02-15T13:02:48.083Z,10.9
2023-02-15T13:04:04.302Z,7.8
2023-02-15T13:05:20.559Z,10.3
2023-02-15T13:06:36.810Z,9.8
2023-02-15T13:07:53.035Z,8.5
2023-02-15T13:09:09.265Z,8.2
2023-02-15T13:10:25.513Z,9.2
2023-02-15T13:11:41.748Z,8.1
2023-02-15T13:12:58.008Z,8
2023-02-15T13:14:14.238Z,8
2023-02-15T13:15:30.463Z,8.6
2023-02-15T13:16:46.704Z,10.3
2023-02-15T13:18:01.966Z,9.1
2023-02-15T13:19:18.200Z,7.7
2023-02-15T13:20:34.432Z,9.4
2023-02-15T13:21:50.668Z,9.4
2023-02-15T13:23:06.923Z,7.4
2023-02-15T13:24:23.150Z,8.7
2023-02-15T13:25:39.385Z,7.1
2023-02-15T13:26:55.632Z,7.2
2023-02-15T13:28:11.885Z,8.5
2023-02-15T13:29:28.105Z,8.4
2023-02-15T13:30:44.352Z,8.7
2023-02-15T13:32:00.582Z,8
2023-02-15T13:33:16.842Z,8.7
2023-02-15T13:34:32.093Z,8.8
2023-02-15T13:35:48.330Z,8.1
2023-02-15T13:37:04.572Z,9.7
2023-02-15T13:38:20.806Z,9
2023-02-15T13:39:37.037Z,8.8
2023-02-15T13:40:53.276Z,7.8
2023-02-15T13:42:09.513Z,9.6
2023-02-15T13:43:25.758Z,9.4
2023-02-15T13:44:42.012Z,10.1
2023-02-15T13:45:58.254Z,7.5
2023-02-15T13:47:14.486Z,7.6
2023-02-15T13:48:30.726Z,8.5
2023-02-15T13:49:46.956Z,8.4
2023-02-15T13:51:02.216Z,7.6
2023-02-15T13:52:18.472Z,8.2
2023-02-15T13:53:34.688Z,9.8
2023-02-15T13:54:50.927Z,8.1
2023-02-15T13:56:07.169Z,9.1
2023-02-15T13:57:23.420Z,7.7
2023-02-15T13:58:39.660Z,10.4
2023-02-15T13:59:55.884Z,8
2023-02-15T14:01:12.141Z,8.5
2023-02-15T14:02:28.369Z,8.3
2023-02-15T14:03:44.627Z,8.2
2023-02-15T14:05:00.852Z,7.8
2023-02-15T14:06:17.110Z,7.4
2023-02-15T14:07:32.340Z,7.4
2023-02-15T14:08:48.588Z,8.1
2023-02-15T14:10:04.821Z,9.3
2023-02-15T14:11:21.067Z,7.9
2023-02-15T14:12:37.312Z,8.8
2023-02-15T14:13:53.543Z,8.3
2023-02-15T14:15:09.786Z,8.6
2023-02-15T14:16:26.016Z,9.8
2023-02-15T14:17:42.269Z,8.1
2023-02-15T14:18:58.497Z,8.5
2023-02-15T14:20:14.730Z,8.3
2023-02-15T14:21:30.975Z,7
2023-02-15T14:22:47.218Z,7.5
2023-02-15T14:24:02.497Z,8.9
2023-02-15T14:25:18.727Z,9.7
2023-02-15T14:26:34.956Z,7.1
2023-02-15T14:27:51.205Z,8.1
2023-02-15T14:29:07.441Z,8.5
2023-02-15T14:30:23.698Z,9
2023-02-15T14:31:39.927Z,8.7
2023-02-15T14:32:56.145Z,8.7
2023-02-15T14:34:12.398Z,7.9
2023-02-15T14:35:28.626Z,6.9
2023-02-15T14:36:44.865Z,7.9
2023-02-15T14:38:01.134Z,7.6
2023-02-15T14:39:17.359Z,8.3
2023-02-15T14:40:32.616Z,9.4
2023-02-15T14:41:48.840Z,7.9
2023-02-15T14:43:05.088Z,8.1
2023-02-15T14:44:21.319Z,6.9
2023-02-15T14:45:37.574Z,8.6
2023-02-15T14:46:53.800Z,7
2023-02-15T14:48:10.053Z,10.6
2023-02-15T14:49:26.295Z,9
2023-02-15T14:50:42.531Z,7.4
2023-02-15T14:51:58.767Z,8.7
2023-02-15T14:53:15.018Z,6.9
2023-02-15T14:54:31.259Z,8
2023-02-15T14:55:47.492Z,7.3
2023-02-15T14:57:02.738Z,7.2
2023-02-15T14:58:18.989Z,8.2
2023-02-15T14:59:35.218Z,7.8
2023-02-15T15:00:51.460Z,8
2023-02-15T15:02:07.712Z,7.2
2023-02-15T15:03:23.937Z,8.2
2023-02-15T15:04:39.222Z,8.5
2023-02-15T15:05:55.455Z,6.2
2023-02-15T15:07:11.695Z,6.1
2023-02-15T15:08:27.943Z,8
2023-02-15T15:09:44.163Z,7.1
2023-02-15T15:11:00.410Z,6.1
2023-02-15T15:12:16.642Z,6.6
2023-02-15T15:13:32.897Z,8.2
2023-02-15T15:14:49.146Z,8
2023-02-15T15:16:05.375Z,7.4
2023-02-15T15:17:21.615Z,6.7
2023-02-15T15:18:37.853Z,9.4
2023-02-15T15:19:54.094Z,7.9
2023-02-15T15:21:09.339Z,8.4
2023-02-15T15:22:25.580Z,10
2023-02-15T15:23:41.827Z,14.7
2023-02-15T15:24:58.061Z,9.7
2023-02-15T15:26:14.309Z,9.2
2023-02-15T15:27:30.548Z,8.6
2023-02-15T15:28:46.772Z,9
2023-02-15T15:30:03.021Z,8.4
2023-02-15T15:31:19.261Z,9.6
2023-02-15T15:32:35.520Z,7.3
2023-02-15T15:33:51.743Z,8.7
2023-02-15T15:35:07.983Z,7.7
2023-02-15T15:36:24.206Z,6.4
2023-02-15T15:37:39.461Z,7.4
2023-02-15T15:38:55.734Z,6.7
2023-02-15T15:40:11.940Z,8.6
2023-02-15T15:41:28.184Z,7.6
2023-02-15T15:42:44.421Z,7
2023-02-15T15:44:00.660Z,8.9
2023-02-15T15:45:16.914Z,7.8
2023-02-15T15:46:33.159Z,9.9
2023-02-15T15:47:49.378Z,7.6
2023-02-15T15:49:05.621Z,8.3
2023-02-15T15:50:21.872Z,7.4
2023-02-15T15:51:38.106Z,6.8
2023-02-15T15:52:54.356Z,7.4
2023-02-15T15:54:09.597Z,6.6
2023-02-15T15:55:25.857Z,9
2023-02-15T15:56:42.083Z,7
2023-02-15T15:57:58.325Z,8.6
2023-02-15T15:59:14.553Z,10.7
2023-02-15T16:00:30.790Z,7.2
2023-02-15T16:01:47.033Z,9
2023-02-15T16:03:03.265Z,9.9
2023-02-15T16:04:19.514Z,9.3
2023-02-15T16:05:35.745Z,9.6
2023-02-15T16:06:51.985Z,8.8
2023-02-15T16:08:08.236Z,8.4
2023-02-15T16:09:24.000Z,6.7
2023-02-15T16:10:39.734Z,7.1
2023-02-15T16:11:55.961Z,10.1
2023-02-15T16:13:12.211Z,10.2
2023-02-15T16:14:28.433Z,9.1
2023-02-15T16:15:44.677Z,6.7
2023-02-15T16:17:00.911Z,7
2023-02-15T16:18:17.168Z,7.8
2023-02-15T16:19:33.397Z,6.2
2023-02-15T16:20:49.624Z,10.7
2023-02-15T16:22:05.877Z,6.4
2023-02-15T16:23:22.114Z,10.3
2023-02-15T16:24:38.366Z,8.2
2023-02-15T16:25:54.580Z,8.8
2023-02-15T16:27:09.850Z,7.5
2023-02-15T16:28:26.080Z,8.6
2023-02-15T16:29:42.324Z,8.1
2023-02-15T16:30:58.555Z,9.2
2023-02-15T16:32:14.805Z,8.2
2023-02-15T16:33:31.044Z,8.7
2023-02-15T16:34:47.268Z,8.6
2023-02-15T16:36:03.531Z,7.9
2023-02-15T16:37:19.746Z,8.5
2023-02-15T16:38:35.997Z,8.8
2023-02-15T16:39:52.221Z,8.4
2023-02-15T16:41:08.458Z,10.6
2023-02-15T16:42:24.714Z,8.5
2023-02-15T16:43:39.964Z,13.9
2023-02-15T16:44:56.196Z,11.1
2023-02-15T16:46:12.429Z,13.9
2023-02-15T16:47:28.677Z,12.5
2023-02-15T16:48:44.922Z,8.5
2023-02-15T16:50:01.157Z,9.2
2023-02-15T16:51:17.409Z,8.5
2023-02-15T16:52:33.641Z,7.7
2023-02-15T16:53:49.884Z,8.4
2023-02-15T16:55:06.185Z,9.5
2023-02-15T16:56:22.436Z,12
2023-02-15T16:57:38.647Z,12.4
2023-02-15T16:58:54.896Z,10.1
2023-02-15T17:00:10.188Z,7.9
2023-02-15T17:01:26.510Z,9.1
2023-02-15T17:02:42.797Z,9.8
2023-02-15T17:03:59.076Z,11.9
2023-02-15T17:05:15.380Z,9.5
2023-02-15T17:06:31.655Z,8.3
2023-02-15T17:07:47.965Z,11.4
2023-02-15T17:09:04.268Z,8.8
2023-02-15T17:10:20.538Z,10.1
2023-02-15T17:11:36.831Z,13.1
2023-02-15T17:12:53.123Z,13.9